sensor_id;sensor_type;location;lat;lon;timestamp;pressure;altitude;pressure_sealevel;temperature;humidity
31096;BME280;17749;51.962;8.560;2023-07-13T05:02:56;99972.66;;;14.99;100.00
31096;BME280;17749;51.962;8.560;2023-07-13T05:05:24;99968.84;;;15.03;100.00
31096;BME280;17749;51.962;8.560;2023-07-13T05:07:52;99968.63;;;15.06;100.00
31096;BME280;17749;51.962;8.560;2023-07-13T05:10:19;99966.53;;;15.11;100.00
31096;BME280;17749;51.962;8.560;2023-07-13T05:12:47;99971.56;;;15.17;100.00
31096;BME280;17749;51.962;8.560;2023-07-13T05:15:14;99965.28;;;15.17;100.00
31096;BME280;17749;51.962;8.560;2023-07-13T05:17:41;99975.94;;;15.18;100.00
31096;BME280;17749;51.962;8.560;2023-07-13T05:20:08;99979.41;;;15.20;100.00
31096;BME280;17749;51.962;8.560;2023-07-13T05:22:35;99976.53;;;15.23;100.00
31096;BME280;17749;51.962;8.560;2023-07-13T05:25:04;99981.63;;;15.28;100.00
31096;BME280;17749;51.962;8.560;2023-07-13T05:27:32;99984.97;;;15.31;100.00
31096;BME280;17749;51.962;8.560;2023-07-13T05:29:59;99977.69;;;15.33;100.00
31096;BME280;17749;51.962;8.560;2023-07-13T05:32:26;99987.09;;;15.41;100.00
31096;BME280;17749;51.962;8.560;2023-07-13T05:34:53;99984.78;;;15.49;100.00
31096;BME280;17749;51.962;8.560;2023-07-13T05:37:20;99984.97;;;15.60;100.00
31096;BME280;17749;51.962;8.560;2023-07-13T05:39:46;99989.81;;;15.69;100.00
31096;BME280;17749;51.962;8.560;2023-07-13T05:42:13;99989.00;;;15.82;100.00
31096;BME280;17749;51.962;8.560;2023-07-13T05:44:40;99992.75;;;15.93;100.00
31096;BME280;17749;51.962;8.560;2023-07-13T05:47:07;99988.97;;;16.10;100.00
31096;BME280;17749;51.962;8.560;2023-07-13T05:49:34;99986.97;;;16.14;100.00
31096;BME280;17749;51.962;8.560;2023-07-13T05:52:01;99992.06;;;16.31;100.00
31096;BME280;17749;51.962;8.560;2023-07-13T05:54:28;99997.50;;;16.44;100.00
31096;BME280;17749;51.962;8.560;2023-07-13T05:56:55;99992.81;;;16.60;100.00
31096;BME280;17749;51.962;8.560;2023-07-13T05:59:22;99989.69;;;16.81;100.00
31096;BME280;17749;51.962;8.560;2023-07-13T06:01:49;99987.38;;;17.02;100.00
31096;BME280;17749;51.962;8.560;2023-07-13T06:04:16;99989.09;;;17.16;100.00
31096;BME280;17749;51.962;8.560;2023-07-13T06:06:43;99989.00;;;17.30;100.00
31096;BME280;17749;51.962;8.560;2023-07-13T06:09:10;99993.63;;;17.53;100.00
31096;BME280;17749;51.962;8.560;2023-07-13T06:11:37;99988.44;;;17.76;100.00
31096;BME280;17749;51.962;8.560;2023-07-13T06:14:04;99989.50;;;17.99;100.00
31096;BME280;17749;51.962;8.560;2023-07-13T06:16:31;99999.38;;;18.11;100.00
31096;BME280;17749;51.962;8.560;2023-07-13T06:18:57;99999.75;;;18.31;100.00
31096;BME280;17749;51.962;8.560;2023-07-13T06:21:24;99996.09;;;18.56;100.00
31096;BME280;17749;51.962;8.560;2023-07-13T06:23:51;99994.38;;;18.55;100.00
31096;BME280;17749;51.962;8.560;2023-07-13T06:26:19;99989.47;;;18.60;100.00
31096;BME280;17749;51.962;8.560;2023-07-13T06:28:46;99999.34;;;18.72;100.00
31096;BME280;17749;51.962;8.560;2023-07-13T06:31:14;100000.09;;;18.74;100.00
31096;BME280;17749;51.962;8.560;2023-07-13T06:33:42;100009.00;;;18.64;100.00
31096;BME280;17749;51.962;8.560;2023-07-13T06:36:09;100014.75;;;18.59;100.00
31096;BME280;17749;51.962;8.560;2023-07-13T06:38:36;100011.28;;;18.57;100.00
31096;BME280;17749;51.962;8.560;2023-07-13T06:41:04;100016.44;;;18.60;100.00
31096;BME280;17749;51.962;8.560;2023-07-13T06:43:31;100015.34;;;18.62;100.00
31096;BME280;17749;51.962;8.560;2023-07-13T06:45:59;100007.88;;;18.55;100.00
31096;BME280;17749;51.962;8.560;2023-07-13T06:48:26;100007.63;;;18.58;100.00
31096;BME280;17749;51.962;8.560;2023-07-13T06:50:55;100016.38;;;18.73;100.00
31096;BME280;17749;51.962;8.560;2023-07-13T06:53:22;100005.72;;;18.95;100.00
31096;BME280;17749;51.962;8.560;2023-07-13T06:55:49;100009.56;;;19.04;100.00
31096;BME280;17749;51.962;8.560;2023-07-13T06:58:17;100008.38;;;19.19;100.00
31096;BME280;17749;51.962;8.560;2023-07-13T07:00:44;100000.56;;;19.39;100.00
31096;BME280;17749;51.962;8.560;2023-07-13T07:03:11;100005.72;;;19.53;100.00
31096;BME280;17749;51.962;8.560;2023-07-13T07:05:38;100016.81;;;19.73;100.00
31096;BME280;17749;51.962;8.560;2023-07-13T07:08:04;100017.59;;;19.86;100.00
31096;BME280;17749;51.962;8.560;2023-07-13T07:10:32;100016.81;;;19.95;100.00
31096;BME280;17749;51.962;8.560;2023-07-13T07:12:58;100017.56;;;20.08;100.00
31096;BME280;17749;51.962;8.560;2023-07-13T07:15:25;100017.28;;;20.34;100.00
31096;BME280;17749;51.962;8.560;2023-07-13T07:17:52;100022.88;;;20.53;100.00
31096;BME280;17749;51.962;8.560;2023-07-13T07:20:19;100025.59;;;20.65;100.00
31096;BME280;17749;51.962;8.560;2023-07-13T07:22:47;100020.34;;;20.84;100.00
31096;BME280;17749;51.962;8.560;2023-07-13T07:25:14;100014.84;;;21.07;100.00
31096;BME280;17749;51.962;8.560;2023-07-13T07:27:41;100019.72;;;21.13;100.00
31096;BME280;17749;51.962;8.560;2023-07-13T07:30:11;100020.94;;;21.09;100.00
31096;BME280;17749;51.962;8.560;2023-07-13T07:32:41;100015.53;;;20.88;100.00
31096;BME280;17749;51.962;8.560;2023-07-13T07:35:23;100017.91;;;20.81;100.00
31096;BME280;17749;51.962;8.560;2023-07-13T07:37:50;100022.56;;;20.79;100.00
31096;BME280;17749;51.962;8.560;2023-07-13T07:40:18;100017.06;;;20.69;100.00
31096;BME280;17749;51.962;8.560;2023-07-13T07:42:48;100023.13;;;20.94;100.00
31096;BME280;17749;51.962;8.560;2023-07-13T07:45:14;100021.09;;;21.28;100.00
31096;BME280;17749;51.962;8.560;2023-07-13T07:47:41;100022.34;;;21.66;100.00
31096;BME280;17749;51.962;8.560;2023-07-13T07:50:09;100015.63;;;21.91;100.00
31096;BME280;17749;51.962;8.560;2023-07-13T07:52:36;100014.78;;;21.91;100.00
31096;BME280;17749;51.962;8.560;2023-07-13T07:55:03;100027.47;;;21.59;100.00
31096;BME280;17749;51.962;8.560;2023-07-13T07:57:33;100016.00;;;21.46;100.00
31096;BME280;17749;51.962;8.560;2023-07-13T08:00:20;100023.19;;;21.24;100.00
31096;BME280;17749;51.962;8.560;2023-07-13T08:02:50;100025.78;;;21.26;100.00
31096;BME280;17749;51.962;8.560;2023-07-13T08:05:20;100022.91;;;21.60;100.00
31096;BME280;17749;51.962;8.560;2023-07-13T08:08:05;100018.91;;;21.64;100.00
31096;BME280;17749;51.962;8.560;2023-07-13T08:10:34;100024.88;;;21.58;100.00
31096;BME280;17749;51.962;8.560;2023-07-13T08:13:01;100030.94;;;21.71;100.00
31096;BME280;17749;51.962;8.560;2023-07-13T08:15:32;100024.09;;;21.67;100.00
31096;BME280;17749;51.962;8.560;2023-07-13T08:17:59;100024.88;;;21.58;100.00
31096;BME280;17749;51.962;8.560;2023-07-13T08:20:25;100025.72;;;21.58;100.00
31096;BME280;17749;51.962;8.560;2023-07-13T08:22:52;100030.53;;;21.76;100.00
31096;BME280;17749;51.962;8.560;2023-07-13T08:25:19;100024.44;;;21.83;100.00
31096;BME280;17749;51.962;8.560;2023-07-13T08:27:47;100030.78;;;21.94;100.00
31096;BME280;17749;51.962;8.560;2023-07-13T08:30:14;100033.25;;;22.06;100.00
31096;BME280;17749;51.962;8.560;2023-07-13T08:32:41;100029.94;;;22.03;100.00
31096;BME280;17749;51.962;8.560;2023-07-13T08:35:08;100027.84;;;22.16;100.00
31096;BME280;17749;51.962;8.560;2023-07-13T08:37:35;100031.38;;;22.07;100.00
31096;BME280;17749;51.962;8.560;2023-07-13T08:40:02;100037.50;;;21.99;100.00
31096;BME280;17749;51.962;8.560;2023-07-13T08:45:13;100027.38;;;22.11;100.00
31096;BME280;17749;51.962;8.560;2023-07-13T08:47:44;100039.78;;;22.35;100.00
31096;BME280;17749;51.962;8.560;2023-07-13T08:50:13;100037.66;;;22.38;100.00
31096;BME280;17749;51.962;8.560;2023-07-13T08:52:41;100035.13;;;22.66;100.00
31096;BME280;17749;51.962;8.560;2023-07-13T08:55:12;100036.84;;;22.76;100.00
31096;BME280;17749;51.962;8.560;2023-07-13T08:57:39;100026.31;;;23.12;100.00
31096;BME280;17749;51.962;8.560;2023-07-13T09:00:11;100026.19;;;23.04;100.00
31096;BME280;17749;51.962;8.560;2023-07-13T09:02:41;100027.63;;;23.08;100.00
31096;BME280;17749;51.962;8.560;2023-07-13T09:08:00;100032.13;;;23.47;100.00
31096;BME280;17749;51.962;8.560;2023-07-13T09:13:03;100040.16;;;23.48;100.00
31096;BME280;17749;51.962;8.560;2023-07-13T09:15:35;100026.38;;;23.59;100.00
31096;BME280;17749;51.962;8.560;2023-07-13T09:18:37;100035.84;;;23.55;100.00
31096;BME280;17749;51.962;8.560;2023-07-13T09:21:03;100034.41;;;23.41;100.00
31096;BME280;17749;51.962;8.560;2023-07-13T09:23:32;100034.84;;;23.56;100.00
31096;BME280;17749;51.962;8.560;2023-07-13T09:26:00;100032.72;;;23.50;100.00
31096;BME280;17749;51.962;8.560;2023-07-13T09:28:29;100036.56;;;23.48;100.00
31096;BME280;17749;51.962;8.560;2023-07-13T09:31:06;100038.94;;;23.60;100.00
31096;BME280;17749;51.962;8.560;2023-07-13T09:33:34;100033.50;;;23.80;100.00
31096;BME280;17749;51.962;8.560;2023-07-13T09:36:05;100026.00;;;23.92;98.78
31096;BME280;17749;51.962;8.560;2023-07-13T09:38:42;100036.34;;;23.88;99.11
31096;BME280;17749;51.962;8.560;2023-07-13T09:44:02;100037.78;;;23.92;96.64
31096;BME280;17749;51.962;8.560;2023-07-13T09:46:33;100034.34;;;23.90;96.99
31096;BME280;17749;51.962;8.560;2023-07-13T09:49:00;100035.50;;;23.88;95.66
31096;BME280;17749;51.962;8.560;2023-07-13T09:51:27;100042.97;;;24.13;97.52
31096;BME280;17749;51.962;8.560;2023-07-13T09:53:53;100040.19;;;24.23;95.94
31096;BME280;17749;51.962;8.560;2023-07-13T09:56:22;100045.31;;;24.26;92.46
31096;BME280;17749;51.962;8.560;2023-07-13T09:58:49;100041.84;;;24.34;96.05
31096;BME280;17749;51.962;8.560;2023-07-13T10:01:16;100052.34;;;24.56;94.41
31096;BME280;17749;51.962;8.560;2023-07-13T10:03:57;100050.97;;;24.70;92.25
31096;BME280;17749;51.962;8.560;2023-07-13T10:06:24;100040.53;;;24.83;91.42
31096;BME280;17749;51.962;8.560;2023-07-13T10:08:53;100045.59;;;24.96;90.62
31096;BME280;17749;51.962;8.560;2023-07-13T10:11:23;100041.47;;;25.28;88.99
31096;BME280;17749;51.962;8.560;2023-07-13T10:13:51;100039.00;;;25.34;88.48
31096;BME280;17749;51.962;8.560;2023-07-13T10:16:20;100043.53;;;25.26;87.43
31096;BME280;17749;51.962;8.560;2023-07-13T10:18:49;100051.06;;;25.14;87.48
31096;BME280;17749;51.962;8.560;2023-07-13T10:21:21;100048.13;;;24.89;86.50
31096;BME280;17749;51.962;8.560;2023-07-13T10:23:53;100046.38;;;24.88;90.23
31096;BME280;17749;51.962;8.560;2023-07-13T10:26:22;100050.44;;;25.02;91.11
31096;BME280;17749;51.962;8.560;2023-07-13T10:28:51;100050.75;;;25.17;90.47
31096;BME280;17749;51.962;8.560;2023-07-13T10:31:19;100046.00;;;25.37;90.49
31096;BME280;17749;51.962;8.560;2023-07-13T10:33:48;100046.84;;;25.38;87.57
31096;BME280;17749;51.962;8.560;2023-07-13T10:36:30;100053.50;;;25.17;86.73
31096;BME280;17749;51.962;8.560;2023-07-13T10:38:59;100051.53;;;25.27;87.91
31096;BME280;17749;51.962;8.560;2023-07-13T10:41:27;100058.41;;;25.31;87.27
31096;BME280;17749;51.962;8.560;2023-07-13T10:43:56;100054.72;;;25.23;87.43
31096;BME280;17749;51.962;8.560;2023-07-13T10:46:25;100056.22;;;25.17;87.90
31096;BME280;17749;51.962;8.560;2023-07-13T10:48:58;100049.25;;;25.41;88.46
31096;BME280;17749;51.962;8.560;2023-07-13T10:51:26;100052.75;;;25.15;85.54
31096;BME280;17749;51.962;8.560;2023-07-13T10:56:46;100042.47;;;24.73;85.35
31096;BME280;17749;51.962;8.560;2023-07-13T11:01:51;100053.72;;;25.06;85.86
31096;BME280;17749;51.962;8.560;2023-07-13T11:04:20;100045.38;;;25.25;85.72
31096;BME280;17749;51.962;8.560;2023-07-13T11:06:47;100049.09;;;25.06;84.37
31096;BME280;17749;51.962;8.560;2023-07-13T11:09:36;100059.13;;;25.16;85.90
31096;BME280;17749;51.962;8.560;2023-07-13T11:12:25;100063.28;;;25.10;86.02
31096;BME280;17749;51.962;8.560;2023-07-13T11:17:32;100070.22;;;24.86;86.03
31096;BME280;17749;51.962;8.560;2023-07-13T11:20:10;100053.31;;;24.83;86.16
31096;BME280;17749;51.962;8.560;2023-07-13T11:27:51;100053.88;;;24.86;86.98
31096;BME280;17749;51.962;8.560;2023-07-13T11:30:25;100059.47;;;25.03;86.89
31096;BME280;17749;51.962;8.560;2023-07-13T11:33:11;100052.22;;;24.93;86.42
31096;BME280;17749;51.962;8.560;2023-07-13T11:35:51;100050.13;;;24.87;86.50
31096;BME280;17749;51.962;8.560;2023-07-13T11:41:17;100045.88;;;25.21;87.22
31096;BME280;17749;51.962;8.560;2023-07-13T11:43:48;100053.28;;;25.28;86.38
31096;BME280;17749;51.962;8.560;2023-07-13T11:46:23;100045.94;;;25.29;83.50
31096;BME280;17749;51.962;8.560;2023-07-13T11:48:51;100048.47;;;25.12;84.85
31096;BME280;17749;51.962;8.560;2023-07-13T11:51:22;100052.28;;;25.02;85.43
31096;BME280;17749;51.962;8.560;2023-07-13T11:53:51;100062.19;;;25.03;86.09
31096;BME280;17749;51.962;8.560;2023-07-13T11:56:23;100063.19;;;25.02;83.40
31096;BME280;17749;51.962;8.560;2023-07-13T11:58:51;100059.69;;;24.91;85.15
31096;BME280;17749;51.962;8.560;2023-07-13T12:01:22;100056.69;;;24.95;86.02
31096;BME280;17749;51.962;8.560;2023-07-13T12:03:50;100050.53;;;25.10;85.87
31096;BME280;17749;51.962;8.560;2023-07-13T12:06:36;100051.69;;;25.08;85.69
31096;BME280;17749;51.962;8.560;2023-07-13T12:09:13;100047.03;;;25.18;83.70
31096;BME280;17749;51.962;8.560;2023-07-13T12:11:43;100052.94;;;25.31;85.59
31096;BME280;17749;51.962;8.560;2023-07-13T12:14:13;100061.38;;;25.46;86.11
31096;BME280;17749;51.962;8.560;2023-07-13T12:16:42;100046.97;;;25.54;83.28
31096;BME280;17749;51.962;8.560;2023-07-13T12:19:20;100036.75;;;25.56;81.82
31096;BME280;17749;51.962;8.560;2023-07-13T12:21:48;100045.59;;;25.50;82.57
31096;BME280;17749;51.962;8.560;2023-07-13T12:24:19;100044.25;;;25.54;83.69
31096;BME280;17749;51.962;8.560;2023-07-13T12:26:58;100040.19;;;25.58;82.67
31096;BME280;17749;51.962;8.560;2023-07-13T12:29:26;100050.88;;;25.51;82.69
31096;BME280;17749;51.962;8.560;2023-07-13T12:31:55;100061.94;;;25.50;81.83
31096;BME280;17749;51.962;8.560;2023-07-13T12:34:23;100055.78;;;25.48;82.55
31096;BME280;17749;51.962;8.560;2023-07-13T12:36:52;100052.41;;;25.54;82.11
31096;BME280;17749;51.962;8.560;2023-07-13T12:39:22;100053.19;;;25.64;82.57
31096;BME280;17749;51.962;8.560;2023-07-13T12:41:51;100052.22;;;25.73;80.68
31096;BME280;17749;51.962;8.560;2023-07-13T12:44:29;100063.59;;;25.69;77.70
31096;BME280;17749;51.962;8.560;2023-07-13T12:47:05;100066.75;;;25.56;78.00
31096;BME280;17749;51.962;8.560;2023-07-13T12:49:43;100050.91;;;25.33;79.13
31096;BME280;17749;51.962;8.560;2023-07-13T12:52:15;100058.28;;;25.41;81.25
31096;BME280;17749;51.962;8.560;2023-07-13T12:54:52;100060.09;;;25.32;78.36
31096;BME280;17749;51.962;8.560;2023-07-13T12:57:32;100054.31;;;25.35;79.19
31096;BME280;17749;51.962;8.560;2023-07-13T13:00:06;100051.53;;;25.27;76.56
31096;BME280;17749;51.962;8.560;2023-07-13T13:02:45;100054.56;;;25.42;79.15
31096;BME280;17749;51.962;8.560;2023-07-13T13:05:12;100041.06;;;25.41;79.27
31096;BME280;17749;51.962;8.560;2023-07-13T13:07:40;100046.53;;;25.67;80.16
31096;BME280;17749;51.962;8.560;2023-07-13T13:10:11;100047.81;;;25.80;79.11
31096;BME280;17749;51.962;8.560;2023-07-13T13:12:43;100041.38;;;25.82;77.15
31096;BME280;17749;51.962;8.560;2023-07-13T13:15:11;100034.47;;;25.95;75.46
31096;BME280;17749;51.962;8.560;2023-07-13T13:17:39;100044.47;;;26.13;73.75
31096;BME280;17749;51.962;8.560;2023-07-13T13:20:18;100053.81;;;26.10;71.34
31096;BME280;17749;51.962;8.560;2023-07-13T13:22:46;100046.94;;;25.98;72.41
31096;BME280;17749;51.962;8.560;2023-07-13T13:25:18;100046.22;;;25.96;69.81
31096;BME280;17749;51.962;8.560;2023-07-13T13:27:47;100045.50;;;25.86;67.24
31096;BME280;17749;51.962;8.560;2023-07-13T13:30:15;100050.69;;;25.97;68.91
31096;BME280;17749;51.962;8.560;2023-07-13T13:32:43;100047.88;;;26.15;71.27
31096;BME280;17749;51.962;8.560;2023-07-13T13:35:14;100061.91;;;26.20;70.18
31096;BME280;17749;51.962;8.560;2023-07-13T13:37:41;100049.00;;;26.04;70.66
31096;BME280;17749;51.962;8.560;2023-07-13T13:40:17;100055.78;;;25.92;69.27
31096;BME280;17749;51.962;8.560;2023-07-13T13:42:44;100057.72;;;25.55;69.84
31096;BME280;17749;51.962;8.560;2023-07-13T13:45:11;100064.69;;;25.32;70.14
31096;BME280;17749;51.962;8.560;2023-07-13T13:47:44;100066.41;;;25.33;71.85
31096;BME280;17749;51.962;8.560;2023-07-13T13:52:43;100089.34;;;25.12;72.72
31096;BME280;17749;51.962;8.560;2023-07-13T13:55:18;100099.84;;;24.71;76.24
31096;BME280;17749;51.962;8.560;2023-07-13T13:57:46;100108.09;;;24.15;80.83
31096;BME280;17749;51.962;8.560;2023-07-13T14:00:14;100106.19;;;23.78;82.75
31096;BME280;17749;51.962;8.560;2023-07-13T14:02:42;100117.69;;;23.72;84.79
31096;BME280;17749;51.962;8.560;2023-07-13T14:05:14;100116.78;;;23.61;87.76
31096;BME280;17749;51.962;8.560;2023-07-13T14:07:43;100114.63;;;23.65;90.95
31096;BME280;17749;51.962;8.560;2023-07-13T14:10:13;100115.06;;;23.60;92.28
31096;BME280;17749;51.962;8.560;2023-07-13T14:12:42;100106.78;;;23.52;93.95
31096;BME280;17749;51.962;8.560;2023-07-13T14:15:25;100105.94;;;23.52;95.21
31096;BME280;17749;51.962;8.560;2023-07-13T14:17:54;100115.09;;;23.41;94.44
31096;BME280;17749;51.962;8.560;2023-07-13T14:20:23;100119.09;;;23.17;97.27
31096;BME280;17749;51.962;8.560;2023-07-13T14:22:51;100119.09;;;22.98;97.86
31096;BME280;17749;51.962;8.560;2023-07-13T14:25:19;100143.44;;;22.79;98.69
31096;BME280;17749;51.962;8.560;2023-07-13T14:27:49;100157.47;;;22.43;100.00
31096;BME280;17749;51.962;8.560;2023-07-13T14:30:19;100162.75;;;22.14;100.00
31096;BME280;17749;51.962;8.560;2023-07-13T14:32:46;100165.78;;;22.00;100.00
31096;BME280;17749;51.962;8.560;2023-07-13T14:35:14;100167.09;;;21.84;100.00
31096;BME280;17749;51.962;8.560;2023-07-13T14:37:42;100173.84;;;21.69;100.00
31096;BME280;17749;51.962;8.560;2023-07-13T14:42:40;100159.81;;;21.64;100.00
31096;BME280;17749;51.962;8.560;2023-07-13T14:45:13;100163.81;;;21.60;100.00
31096;BME280;17749;51.962;8.560;2023-07-13T14:47:41;100168.00;;;21.53;100.00
31096;BME280;17749;51.962;8.560;2023-07-13T14:50:15;100164.84;;;21.48;100.00
31096;BME280;17749;51.962;8.560;2023-07-13T14:52:43;100159.81;;;21.43;100.00
31096;BME280;17749;51.962;8.560;2023-07-13T14:55:14;100169.28;;;21.37;100.00
31096;BME280;17749;51.962;8.560;2023-07-13T14:57:41;100182.22;;;21.34;100.00
31096;BME280;17749;51.962;8.560;2023-07-13T15:02:38;100188.09;;;20.95;100.00
31096;BME280;17749;51.962;8.560;2023-07-13T15:05:12;100197.25;;;20.83;100.00
31096;BME280;17749;51.962;8.560;2023-07-13T15:07:40;100184.72;;;20.71;100.00
31096;BME280;17749;51.962;8.560;2023-07-13T15:10:15;100185.69;;;20.58;100.00
31096;BME280;17749;51.962;8.560;2023-07-13T15:12:42;100193.44;;;20.52;100.00
31096;BME280;17749;51.962;8.560;2023-07-13T15:15:09;100206.06;;;20.40;100.00
31096;BME280;17749;51.962;8.560;2023-07-13T15:20:12;100207.16;;;20.15;100.00
31096;BME280;17749;51.962;8.560;2023-07-13T15:22:42;100211.69;;;20.03;100.00
31096;BME280;17749;51.962;8.560;2023-07-13T15:25:23;100208.97;;;19.92;100.00
31096;BME280;17749;51.962;8.560;2023-07-13T15:27:51;100217.56;;;19.86;100.00
31096;BME280;17749;51.962;8.560;2023-07-13T15:30:19;100217.16;;;19.79;100.00
31096;BME280;17749;51.962;8.560;2023-07-13T15:32:46;100214.81;;;19.62;100.00
31096;BME280;17749;51.962;8.560;2023-07-13T15:35:18;100212.16;;;19.38;100.00
31096;BME280;17749;51.962;8.560;2023-07-13T15:37:45;100214.28;;;19.21;100.00
31096;BME280;17749;51.962;8.560;2023-07-13T15:40:13;100206.66;;;19.15;100.00
31096;BME280;17749;51.962;8.560;2023-07-13T15:42:40;100205.91;;;19.13;100.00
31096;BME280;17749;51.962;8.560;2023-07-13T15:45:14;100204.91;;;19.14;100.00
31096;BME280;17749;51.962;8.560;2023-07-13T15:47:42;100203.06;;;19.15;100.00
31096;BME280;17749;51.962;8.560;2023-07-13T15:50:12;100205.66;;;19.16;100.00
31096;BME280;17749;51.962;8.560;2023-07-13T15:52:39;100207.75;;;19.13;100.00
31096;BME280;17749;51.962;8.560;2023-07-13T15:55:08;100210.78;;;19.08;100.00
31096;BME280;17749;51.962;8.560;2023-07-13T15:57:35;100212.72;;;19.06;100.00
31096;BME280;17749;51.962;8.560;2023-07-13T16:00:02;100212.09;;;19.02;100.00
31096;BME280;17749;51.962;8.560;2023-07-13T16:02:38;100211.44;;;18.99;100.00
31096;BME280;17749;51.962;8.560;2023-07-13T16:05:05;100210.19;;;18.92;100.00
31096;BME280;17749;51.962;8.560;2023-07-13T16:07:32;100204.59;;;18.82;100.00
31096;BME280;17749;51.962;8.560;2023-07-13T16:09:59;100211.91;;;18.80;100.00
31096;BME280;17749;51.962;8.560;2023-07-13T16:12:26;100203.19;;;18.76;100.00
31096;BME280;17749;51.962;8.560;2023-07-13T16:14:53;100201.34;;;18.77;100.00
31096;BME280;17749;51.962;8.560;2023-07-13T16:17:20;100200.28;;;18.79;100.00
31096;BME280;17749;51.962;8.560;2023-07-13T16:19:47;100208.91;;;18.85;100.00
31096;BME280;17749;51.962;8.560;2023-07-13T16:22:15;100212.75;;;18.93;100.00
31096;BME280;17749;51.962;8.560;2023-07-13T16:24:42;100209.94;;;18.95;100.00
31096;BME280;17749;51.962;8.560;2023-07-13T16:27:11;100197.88;;;18.88;100.00
31096;BME280;17749;51.962;8.560;2023-07-13T16:29:39;100198.09;;;18.85;100.00
31096;BME280;17749;51.962;8.560;2023-07-13T16:32:10;100193.09;;;18.91;100.00
31096;BME280;17749;51.962;8.560;2023-07-13T16:34:38;100194.91;;;19.03;100.00
31096;BME280;17749;51.962;8.560;2023-07-13T16:37:20;100194.09;;;19.14;100.00
31096;BME280;17749;51.962;8.560;2023-07-13T16:39:49;100187.97;;;19.12;100.00
31096;BME280;17749;51.962;8.560;2023-07-13T16:42:19;100190.66;;;19.12;100.00
31096;BME280;17749;51.962;8.560;2023-07-13T16:44:46;100187.84;;;19.14;100.00
31096;BME280;17749;51.962;8.560;2023-07-13T16:47:14;100195.63;;;19.18;100.00
31096;BME280;17749;51.962;8.560;2023-07-13T16:49:42;100200.50;;;19.13;100.00
31096;BME280;17749;51.962;8.560;2023-07-13T16:52:09;100196.81;;;19.14;100.00
31096;BME280;17749;51.962;8.560;2023-07-13T16:54:37;100205.66;;;19.16;100.00
31096;BME280;17749;51.962;8.560;2023-07-13T16:57:12;100204.47;;;19.20;100.00
31096;BME280;17749;51.962;8.560;2023-07-13T16:59:40;100198.59;;;19.26;100.00
31096;BME280;17749;51.962;8.560;2023-07-13T17:02:55;100189.81;;;19.12;100.00
31096;BME280;17749;51.962;8.560;2023-07-13T17:04:56;100193.66;;;19.20;100.00
31096;BME280;17749;51.962;8.560;2023-07-13T17:07:23;100196.88;;;19.25;100.00
31096;BME280;17749;51.962;8.560;2023-07-13T17:09:50;100189.28;;;19.31;100.00
31096;BME280;17749;51.962;8.560;2023-07-13T17:12:20;100187.09;;;19.36;100.00
31096;BME280;17749;51.962;8.560;2023-07-13T17:14:52;100182.59;;;19.36;100.00
31096;BME280;17749;51.962;8.560;2023-07-13T17:17:37;100186.94;;;19.26;100.00
31096;BME280;17749;51.962;8.560;2023-07-13T17:20:14;100183.84;;;19.19;100.00
31096;BME280;17749;51.962;8.560;2023-07-13T17:22:43;100184.81;;;19.18;100.00
31096;BME280;17749;51.962;8.560;2023-07-13T17:25:12;100191.69;;;19.22;100.00
31096;BME280;17749;51.962;8.560;2023-07-13T17:27:40;100191.69;;;19.22;100.00
31096;BME280;17749;51.962;8.560;2023-07-13T17:30:09;100188.28;;;19.20;100.00
31096;BME280;17749;51.962;8.560;2023-07-13T17:32:39;100204.69;;;19.17;100.00
31096;BME280;17749;51.962;8.560;2023-07-13T17:35:23;100199.75;;;19.11;100.00
31096;BME280;17749;51.962;8.560;2023-07-13T17:37:56;100209.16;;;19.05;100.00
31096;BME280;17749;51.962;8.560;2023-07-13T17:40:23;100201.41;;;19.01;100.00
31096;BME280;17749;51.962;8.560;2023-07-13T17:42:50;100212.97;;;18.90;100.00
31096;BME280;17749;51.962;8.560;2023-07-13T17:45:25;100212.34;;;18.87;100.00
31096;BME280;17749;51.962;8.560;2023-07-13T17:47:53;100219.25;;;18.78;100.00
31096;BME280;17749;51.962;8.560;2023-07-13T17:50:31;100222.50;;;18.57;100.00
31096;BME280;17749;51.962;8.560;2023-07-13T17:53:18;100224.56;;;18.54;100.00
31096;BME280;17749;51.962;8.560;2023-07-13T17:55:54;100234.03;;;18.47;100.00
31096;BME280;17749;51.962;8.560;2023-07-13T17:58:21;100220.56;;;18.47;100.00
31096;BME280;17749;51.962;8.560;2023-07-13T18:00:48;100234.41;;;18.42;100.00
31096;BME280;17749;51.962;8.560;2023-07-13T18:03:20;100238.72;;;18.45;100.00
31096;BME280;17749;51.962;8.560;2023-07-13T18:05:48;100249.69;;;18.42;100.00
31096;BME280;17749;51.962;8.560;2023-07-13T18:08:20;100244.72;;;18.35;100.00
31096;BME280;17749;51.962;8.560;2023-07-13T18:10:47;100244.97;;;18.32;100.00
31096;BME280;17749;51.962;8.560;2023-07-13T18:13:15;100254.88;;;18.19;100.00
31096;BME280;17749;51.962;8.560;2023-07-13T18:15:43;100251.84;;;18.11;100.00
31096;BME280;17749;51.962;8.560;2023-07-13T18:18:10;100252.41;;;18.16;100.00
31096;BME280;17749;51.962;8.560;2023-07-13T18:20:39;100253.56;;;18.12;100.00
31096;BME280;17749;51.962;8.560;2023-07-13T18:23:16;100257.88;;;18.14;100.00
31096;BME280;17749;51.962;8.560;2023-07-13T18:25:44;100254.75;;;18.21;100.00
31096;BME280;17749;51.962;8.560;2023-07-13T18:28:12;100259.72;;;18.14;100.00
31096;BME280;17749;51.962;8.560;2023-07-13T18:30:42;100265.31;;;18.11;100.00
31096;BME280;17749;51.962;8.560;2023-07-13T18:33:16;100259.38;;;18.06;100.00
31096;BME280;17749;51.962;8.560;2023-07-13T18:35:44;100263.78;;;18.07;100.00
31096;BME280;17749;51.962;8.560;2023-07-13T18:38:16;100260.78;;;17.99;100.00